createdAt,value
2022-09-30T00:00:05.428Z,18.64
2022-09-30T00:03:12.304Z,18.79
2022-09-30T00:06:36.267Z,18.82
2022-09-30T00:13:26.366Z,18.44
2022-09-30T00:16:18.643Z,18.46
2022-09-30T00:19:14.876Z,18.79
2022-09-30T00:22:21.649Z,18.34
2022-09-30T00:29:01.027Z,18.49
2022-09-30T00:35:51.131Z,18.00
2022-09-30T00:38:54.218Z,18.31
2022-09-30T00:45:59.312Z,18.93
2022-09-30T00:49:32.023Z,18.90
2022-09-30T00:56:27.576Z,19.08
2022-09-30T01:03:13.667Z,18.61
2022-09-30T01:10:16.940Z,19.17
2022-09-30T01:13:58.662Z,19.25
2022-09-30T01:17:53.931Z,19.43
2022-09-30T01:21:03.722Z,19.37
2022-09-30T01:24:17.400Z,19.34
2022-09-30T01:28:07.969Z,19.20
2022-09-30T01:31:25.004Z,19.19
2022-09-30T01:35:27.081Z,19.19
2022-09-30T01:39:33.955Z,18.92
2022-09-30T01:46:46.583Z,18.54
2022-09-30T01:57:26.582Z,18.67
2022-09-30T02:00:41.931Z,18.83
2022-09-30T02:07:48.613Z,18.73
2022-09-30T02:14:55.713Z,18.26
2022-09-30T02:18:38.219Z,18.63
2022-09-30T02:21:53.322Z,18.53
2022-09-30T02:25:29.244Z,18.50
2022-09-30T02:28:27.132Z,18.52
2022-09-30T02:32:42.958Z,18.34
2022-09-30T02:36:25.852Z,18.06
2022-09-30T02:40:00.713Z,18.23
2022-09-30T02:42:57.675Z,18.13
2022-09-30T02:46:20.015Z,17.82
2022-09-30T02:53:12.232Z,16.91
2022-09-30T02:56:43.601Z,16.43
2022-09-30T03:03:35.180Z,17.41
2022-09-30T03:06:31.997Z,17.50
2022-09-30T03:09:37.229Z,17.42
2022-09-30T03:12:59.575Z,17.59
2022-09-30T03:23:28.224Z,17.23
2022-09-30T03:27:32.805Z,17.61
2022-09-30T03:34:24.419Z,17.08
2022-09-30T03:37:34.316Z,17.58
2022-09-30T03:40:51.526Z,17.89
2022-09-30T03:44:16.182Z,17.64
2022-09-30T03:47:26.420Z,17.53
2022-09-30T03:50:40.782Z,17.45
2022-09-30T03:53:29.051Z,17.14
2022-09-30T03:56:20.712Z,16.93
2022-09-30T04:02:12.510Z,17.51
2022-09-30T04:05:15.525Z,17.41
2022-09-30T04:07:42.935Z,17.61
2022-09-30T04:10:10.276Z,17.65
2022-09-30T04:12:37.751Z,17.68
2022-09-30T04:15:06.259Z,17.82
2022-09-30T04:17:33.602Z,17.72
2022-09-30T04:20:01.096Z,17.73
2022-09-30T04:22:46.912Z,17.95
2022-09-30T04:25:14.461Z,18.02
2022-09-30T04:27:41.890Z,17.96
2022-09-30T04:30:09.887Z,17.81
2022-09-30T04:32:37.353Z,17.87
2022-09-30T04:35:05.231Z,17.79
2022-09-30T04:37:32.888Z,17.89
2022-09-30T04:40:00.461Z,17.82
2022-09-30T04:42:27.940Z,17.65
2022-09-30T04:44:55.858Z,17.58
2022-09-30T04:47:25.286Z,17.45
2022-09-30T04:49:52.711Z,17.71
2022-09-30T04:52:20.229Z,17.79
2022-09-30T04:54:47.689Z,17.71
2022-09-30T04:57:15.552Z,17.85
2022-09-30T04:59:43.855Z,17.83
2022-09-30T05:02:12.867Z,17.76
2022-09-30T05:04:40.439Z,17.97
2022-09-30T05:07:09.046Z,17.91
2022-09-30T05:09:38.797Z,18.13
2022-09-30T05:12:06.337Z,18.17
2022-09-30T05:14:34.622Z,18.20
2022-09-30T05:17:02.321Z,17.85
2022-09-30T05:19:30.712Z,18.00
2022-09-30T05:21:58.548Z,17.76
2022-09-30T05:24:26.035Z,17.77
2022-09-30T05:26:53.596Z,17.23
2022-09-30T05:29:21.061Z,17.72
2022-09-30T05:31:48.706Z,17.85
2022-09-30T05:34:19.243Z,17.50
2022-09-30T05:36:46.854Z,17.77
2022-09-30T05:39:14.629Z,17.84
2022-09-30T05:41:42.120Z,18.13
2022-09-30T05:44:10.217Z,18.14
2022-09-30T05:46:37.632Z,18.25
2022-09-30T05:49:05.241Z,18.08
2022-09-30T05:51:32.724Z,18.16
2022-09-30T05:54:00.057Z,18.20
2022-09-30T05:56:27.433Z,18.03
2022-09-30T05:58:54.917Z,18.01
2022-09-30T06:01:22.449Z,17.99
2022-09-30T06:03:50.226Z,17.80
2022-09-30T06:06:19.667Z,17.85
2022-09-30T06:08:47.511Z,17.97
2022-09-30T06:11:18.899Z,18.25
2022-09-30T06:13:47.571Z,18.70
2022-09-30T06:16:15.908Z,18.70
2022-09-30T06:18:44.043Z,18.93
2022-09-30T06:21:18.972Z,19.19
2022-09-30T06:23:54.847Z,19.39
2022-09-30T06:26:23.385Z,19.58
2022-09-30T06:28:51.900Z,19.71
2022-09-30T06:31:21.189Z,20.24
2022-09-30T06:33:53.495Z,20.16
2022-09-30T06:36:20.934Z,19.92
2022-09-30T06:38:51.463Z,20.06
2022-09-30T06:41:18.941Z,20.27
2022-09-30T06:43:58.808Z,20.33
2022-09-30T06:46:31.516Z,19.89
2022-09-30T06:49:13.315Z,19.38
2022-09-30T06:51:42.221Z,19.69
2022-09-30T06:54:10.579Z,20.28
2022-09-30T06:56:38.288Z,20.24
2022-09-30T06:59:05.688Z,20.11
2022-09-30T07:01:33.199Z,19.99
2022-09-30T07:04:03.325Z,20.30
2022-09-30T07:06:31.198Z,20.36
2022-09-30T07:08:58.699Z,20.21
2022-09-30T07:11:26.396Z,20.21
2022-09-30T07:13:54.126Z,20.91
2022-09-30T07:16:21.794Z,21.21
2022-09-30T07:18:51.823Z,21.61
2022-09-30T07:21:19.376Z,22.51
2022-09-30T07:23:49.913Z,22.22
2022-09-30T07:26:19.635Z,21.80
2022-09-30T07:28:48.135Z,22.08
2022-09-30T07:31:37.262Z,22.11
2022-09-30T07:34:08.842Z,21.96
2022-09-30T07:36:39.154Z,23.10
2022-09-30T07:39:09.217Z,23.04
2022-09-30T07:41:39.666Z,23.51
2022-09-30T07:44:12.329Z,23.25
2022-09-30T07:46:41.177Z,24.59
2022-09-30T07:49:13.584Z,24.55
2022-09-30T07:51:45.292Z,23.41
2022-09-30T07:54:15.961Z,24.98
2022-09-30T07:57:08.872Z,24.08
2022-09-30T07:59:36.847Z,24.25
2022-09-30T08:02:06.140Z,23.96
2022-09-30T08:04:34.384Z,23.24
2022-09-30T08:07:02.906Z,24.25
2022-09-30T08:09:35.272Z,24.05
2022-09-30T08:12:04.556Z,22.37
2022-09-30T08:14:32.599Z,22.77
2022-09-30T08:17:01.604Z,22.30
2022-09-30T08:19:30.959Z,22.96
2022-09-30T08:21:58.794Z,22.16
2022-09-30T08:24:27.092Z,21.54
2022-09-30T08:26:55.760Z,22.48
2022-09-30T08:29:53.423Z,22.38
2022-09-30T08:32:10.868Z,21.74
2022-09-30T08:34:38.303Z,21.23
2022-09-30T08:37:09.113Z,21.77
2022-09-30T08:39:38.680Z,21.04
2022-09-30T08:42:32.767Z,21.89
2022-09-30T08:45:21.386Z,22.73
2022-09-30T08:48:00.985Z,22.43
2022-09-30T08:51:01.614Z,22.30
2022-09-30T08:53:33.436Z,21.70
2022-09-30T08:56:03.237Z,21.73
2022-09-30T08:58:41.459Z,21.07
2022-09-30T09:01:38.321Z,20.83
2022-09-30T09:04:07.960Z,21.68
2022-09-30T09:06:59.102Z,22.05
2022-09-30T09:09:59.126Z,22.01
2022-09-30T09:12:44.903Z,21.52
2022-09-30T09:15:24.463Z,21.45
2022-09-30T09:18:23.999Z,22.04
2022-09-30T09:21:02.125Z,22.28
2022-09-30T09:23:33.083Z,22.26
2022-09-30T09:26:00.747Z,21.23
2022-09-30T09:28:37.057Z,21.48
2022-09-30T09:31:04.880Z,20.96
2022-09-30T09:33:36.885Z,21.33
2022-09-30T09:36:04.302Z,21.06
2022-09-30T09:38:49.141Z,21.08
2022-09-30T09:41:33.548Z,21.12
2022-09-30T09:44:15.016Z,21.23
2022-09-30T09:46:52.794Z,20.77
2022-09-30T09:49:23.595Z,21.54
2022-09-30T09:52:00.314Z,21.12
2022-09-30T09:54:30.332Z,21.93
2022-09-30T09:57:09.479Z,21.90
2022-09-30T09:59:39.378Z,21.49
2022-09-30T10:02:24.264Z,21.76
2022-09-30T10:05:00.215Z,20.71
2022-09-30T10:07:33.552Z,21.30
2022-09-30T10:10:23.423Z,21.53
2022-09-30T10:12:51.471Z,21.75
2022-09-30T10:15:26.441Z,21.57
2022-09-30T10:17:57.010Z,21.71
2022-09-30T10:20:31.205Z,21.30
2022-09-30T10:23:20.200Z,21.51
2022-09-30T10:26:05.770Z,21.22
2022-09-30T10:28:44.382Z,20.92
2022-09-30T10:31:15.937Z,21.17
2022-09-30T10:33:46.396Z,21.28
2022-09-30T10:36:17.597Z,20.91
2022-09-30T10:39:07.758Z,21.48
2022-09-30T10:41:38.345Z,21.18
2022-09-30T10:44:14.993Z,20.99
2022-09-30T10:46:45.120Z,20.97
2022-09-30T10:49:26.198Z,21.10
2022-09-30T10:51:54.599Z,20.85
2022-09-30T10:54:49.903Z,20.61
2022-09-30T10:57:28.843Z,20.98
2022-09-30T11:00:01.286Z,20.31
2022-09-30T11:02:44.608Z,21.11
2022-09-30T11:05:21.156Z,20.97
2022-09-30T11:07:57.595Z,21.05
2022-09-30T11:10:48.882Z,20.99
2022-09-30T11:13:21.640Z,21.29
2022-09-30T11:16:06.574Z,21.49
2022-09-30T11:19:04.883Z,22.18
2022-09-30T11:21:46.564Z,22.75
2022-09-30T11:24:14.072Z,21.53
2022-09-30T11:27:10.397Z,21.72
2022-09-30T11:30:11.314Z,21.60
2022-09-30T11:33:08.720Z,21.82
2022-09-30T11:36:09.836Z,21.81
2022-09-30T11:39:06.875Z,21.82
2022-09-30T11:41:42.782Z,21.25
2022-09-30T11:44:36.254Z,21.57
2022-09-30T11:47:36.747Z,22.25
2022-09-30T11:50:23.195Z,22.44
2022-09-30T11:53:02.896Z,21.13
2022-09-30T11:55:44.516Z,21.34
2022-09-30T11:58:40.345Z,20.90
2022-09-30T12:01:21.297Z,21.62
2022-09-30T12:04:00.944Z,22.13
2022-09-30T12:06:54.073Z,21.36
2022-09-30T12:09:32.353Z,21.80
2022-09-30T12:12:12.443Z,20.93
2022-09-30T12:14:57.984Z,21.08
2022-09-30T12:17:32.680Z,21.99
2022-09-30T12:20:15.562Z,21.24
2022-09-30T12:22:47.130Z,20.77
2022-09-30T12:25:22.932Z,21.14
2022-09-30T12:28:00.603Z,21.02
2022-09-30T12:30:30.643Z,21.37
2022-09-30T12:33:36.439Z,20.89
2022-09-30T12:36:45.850Z,21.34
2022-09-30T12:39:48.845Z,21.96
2022-09-30T12:42:41.208Z,21.23
2022-09-30T12:45:24.705Z,21.43
2022-09-30T12:47:56.139Z,20.78
2022-09-30T12:50:28.881Z,20.96
2022-09-30T12:52:57.655Z,21.51
2022-09-30T12:55:32.235Z,21.83
2022-09-30T12:58:01.592Z,22.17
2022-09-30T13:00:34.586Z,21.47
2022-09-30T13:03:09.035Z,21.57
2022-09-30T13:05:38.044Z,22.27
2022-09-30T13:08:05.313Z,21.51
2022-09-30T13:10:58.075Z,21.39
2022-09-30T13:13:29.279Z,21.31
2022-09-30T13:16:03.700Z,21.82
2022-09-30T13:18:31.017Z,21.82
2022-09-30T13:21:04.665Z,21.45
2022-09-30T13:23:54.530Z,21.64
2022-09-30T13:26:37.229Z,21.57
2022-09-30T13:29:16.725Z,21.11
2022-09-30T13:31:49.902Z,21.50
2022-09-30T13:34:24.534Z,21.44
2022-09-30T13:36:51.788Z,21.07
2022-09-30T13:39:31.595Z,20.80
2022-09-30T13:42:14.455Z,21.38
2022-09-30T13:45:05.009Z,21.39
2022-09-30T13:47:51.824Z,20.88
2022-09-30T13:50:39.907Z,21.02
2022-09-30T13:53:16.088Z,21.42
2022-09-30T13:55:47.960Z,21.79
2022-09-30T13:58:36.841Z,22.03
2022-09-30T14:01:26.851Z,21.69
2022-09-30T14:04:21.594Z,21.67
2022-09-30T14:06:54.918Z,21.95
2022-09-30T14:09:54.932Z,21.30
2022-09-30T14:12:29.158Z,21.27
2022-09-30T14:15:25.538Z,21.23
2022-09-30T14:18:08.732Z,21.52
2022-09-30T14:21:02.863Z,21.72
2022-09-30T14:23:30.467Z,21.80
2022-09-30T14:26:20.355Z,21.48
2022-09-30T14:29:08.600Z,21.75
2022-09-30T14:31:44.638Z,21.83
2022-09-30T14:34:14.886Z,21.96
2022-09-30T14:36:44.314Z,22.27
2022-09-30T14:39:20.401Z,21.84
2022-09-30T14:41:55.800Z,21.65
2022-09-30T14:44:24.470Z,22.21
2022-09-30T14:46:52.757Z,22.02
2022-09-30T14:49:28.622Z,22.28
2022-09-30T14:51:56.144Z,21.91
2022-09-30T14:54:31.897Z,22.73
2022-09-30T14:57:02.551Z,22.87
2022-09-30T14:59:33.463Z,22.61
2022-09-30T15:02:03.891Z,22.46
2022-09-30T15:04:39.032Z,22.65
2022-09-30T15:07:11.297Z,22.60
2022-09-30T15:09:42.265Z,22.45
2022-09-30T15:12:17.868Z,22.51
2022-09-30T15:14:55.901Z,22.75
2022-09-30T15:17:28.708Z,22.08
2022-09-30T15:19:58.521Z,22.25
2022-09-30T15:22:29.069Z,22.06
2022-09-30T15:24:58.174Z,22.17
2022-09-30T15:27:37.010Z,22.03
2022-09-30T15:30:24.240Z,21.40
2022-09-30T15:33:01.224Z,21.43
2022-09-30T15:35:29.472Z,21.66
2022-09-30T15:38:21.260Z,21.28
2022-09-30T15:40:59.715Z,21.37
2022-09-30T15:43:52.785Z,21.35
2022-09-30T15:46:38.619Z,21.61
2022-09-30T15:49:35.483Z,21.80
2022-09-30T15:52:36.600Z,21.08
2022-09-30T15:55:52.172Z,21.41
2022-09-30T15:58:39.995Z,21.38
2022-09-30T16:01:27.733Z,21.24
2022-09-30T16:04:14.373Z,21.46
2022-09-30T16:06:42.061Z,21.44
2022-09-30T16:09:21.435Z,21.79
2022-09-30T16:12:09.954Z,21.75
2022-09-30T16:14:44.037Z,21.12
2022-09-30T16:17:23.584Z,21.24
2022-09-30T16:19:53.795Z,20.97
2022-09-30T16:22:42.752Z,21.31
2022-09-30T16:25:28.102Z,21.06
2022-09-30T16:27:59.754Z,21.35
2022-09-30T16:30:29.193Z,21.40
2022-09-30T16:32:59.574Z,21.42
2022-09-30T16:35:28.864Z,21.60
2022-09-30T16:38:06.987Z,21.25
2022-09-30T16:40:38.271Z,21.30
2022-09-30T16:43:07.750Z,21.00
2022-09-30T16:45:35.763Z,20.89
2022-09-30T16:48:16.900Z,21.06
2022-09-30T16:50:49.421Z,20.90
2022-09-30T16:53:17.128Z,20.82
2022-09-30T16:55:45.020Z,20.44
2022-09-30T16:58:13.099Z,20.49
2022-09-30T17:00:44.742Z,20.63
2022-09-30T17:03:17.074Z,20.60
2022-09-30T17:05:46.530Z,20.56
2022-09-30T17:08:15.838Z,20.64
2022-09-30T17:10:46.430Z,20.58
2022-09-30T17:13:17.699Z,20.77
2022-09-30T17:15:50.316Z,20.83
2022-09-30T17:18:18.921Z,20.56
2022-09-30T17:20:52.704Z,21.13
2022-09-30T17:23:22.186Z,21.07
2022-09-30T17:25:50.463Z,21.26
2022-09-30T17:28:18.355Z,20.94
2022-09-30T17:30:48.271Z,20.61
2022-09-30T17:33:16.880Z,20.74
2022-09-30T17:35:44.388Z,20.64
2022-09-30T17:38:13.390Z,20.59
2022-09-30T17:40:59.458Z,20.94
2022-09-30T17:43:29.479Z,21.46
2022-09-30T17:45:59.221Z,21.44
2022-09-30T17:48:26.908Z,21.09
2022-09-30T17:50:56.750Z,20.70
2022-09-30T17:53:24.448Z,20.64
2022-09-30T17:56:04.741Z,20.72
2022-09-30T17:58:32.427Z,20.95
2022-09-30T18:01:08.076Z,21.00
2022-09-30T18:03:36.837Z,20.96
2022-09-30T18:06:10.132Z,21.12
2022-09-30T18:08:55.805Z,21.12
2022-09-30T18:11:26.107Z,21.13
2022-09-30T18:13:59.528Z,21.28
2022-09-30T18:16:30.887Z,21.03
2022-09-30T18:18:59.439Z,20.74
2022-09-30T18:21:28.149Z,20.79
2022-09-30T18:23:59.288Z,20.96
2022-09-30T18:26:33.296Z,20.94
2022-09-30T18:29:03.477Z,20.62
2022-09-30T18:31:38.868Z,20.70
2022-09-30T18:34:07.190Z,20.94
2022-09-30T18:36:37.483Z,20.98
2022-09-30T18:39:05.233Z,21.15
2022-09-30T18:41:35.307Z,20.77
2022-09-30T18:44:03.496Z,20.62
2022-09-30T18:46:31.434Z,20.90
2022-09-30T18:48:59.011Z,20.82
2022-09-30T18:51:26.538Z,20.90
2022-09-30T18:53:57.932Z,21.12
2022-09-30T18:56:29.800Z,20.96
2022-09-30T18:59:04.819Z,20.96
2022-09-30T19:01:33.956Z,21.02
2022-09-30T19:04:03.473Z,21.37
2022-09-30T19:06:31.137Z,21.19
2022-09-30T19:08:58.612Z,21.16
2022-09-30T19:11:27.941Z,21.34
2022-09-30T19:13:59.445Z,21.32
2022-09-30T19:16:28.772Z,21.24
2022-09-30T19:18:59.272Z,21.23
2022-09-30T19:21:28.835Z,21.05
2022-09-30T19:23:59.819Z,21.22
2022-09-30T19:26:28.459Z,21.06
2022-09-30T19:28:56.957Z,20.62
2022-09-30T19:31:25.873Z,20.33
2022-09-30T19:33:56.919Z,20.48
2022-09-30T19:36:27.297Z,20.26
2022-09-30T19:39:11.531Z,20.76
2022-09-30T19:41:40.445Z,20.95
2022-09-30T19:44:08.532Z,21.15
2022-09-30T19:46:36.686Z,21.04
2022-09-30T19:49:04.285Z,21.08
2022-09-30T19:51:37.262Z,21.41
2022-09-30T19:54:07.547Z,21.12
2022-09-30T19:56:37.344Z,21.14
2022-09-30T19:59:05.775Z,21.15
2022-09-30T20:01:35.313Z,20.79
2022-09-30T20:04:05.473Z,20.90
2022-09-30T20:06:34.456Z,20.79
2022-09-30T20:09:05.025Z,21.03
2022-09-30T20:11:36.204Z,21.19
2022-09-30T20:14:25.515Z,21.12
2022-09-30T20:16:54.397Z,21.07
2022-09-30T20:19:23.201Z,20.91
2022-09-30T20:21:52.309Z,20.82
2022-09-30T20:24:19.933Z,20.95
2022-09-30T20:26:48.331Z,21.09
2022-09-30T20:29:19.775Z,20.86
2022-09-30T20:31:48.285Z,20.91
2022-09-30T20:34:17.734Z,20.97
2022-09-30T20:36:45.373Z,20.90
2022-09-30T20:39:12.988Z,20.72
2022-09-30T20:41:40.820Z,20.77
2022-09-30T20:44:12.185Z,21.07
2022-09-30T20:46:41.748Z,21.20
2022-09-30T20:49:09.654Z,21.08
2022-09-30T20:51:37.810Z,20.91
2022-09-30T20:54:05.143Z,21.02
2022-09-30T20:56:55.669Z,21.14
2022-09-30T20:59:20.293Z,21.34
2022-09-30T21:01:47.780Z,20.95
2022-09-30T21:04:15.329Z,20.96
2022-09-30T21:06:42.782Z,21.02
2022-09-30T21:09:13.281Z,20.71
2022-09-30T21:11:42.174Z,20.83
2022-09-30T21:14:09.607Z,21.01
2022-09-30T21:16:37.247Z,20.95
2022-09-30T21:19:04.887Z,21.13
2022-09-30T21:21:32.553Z,21.16
2022-09-30T21:24:00.291Z,21.12
2022-09-30T21:26:28.003Z,21.15
2022-09-30T21:28:55.482Z,21.31
2022-09-30T21:31:27.720Z,21.19
2022-09-30T21:33:59.751Z,21.46
2022-09-30T21:36:28.986Z,21.18
2022-09-30T21:39:03.675Z,21.17
2022-09-30T21:41:33.293Z,20.68
2022-09-30T21:44:01.460Z,20.45
2022-09-30T21:46:29.625Z,20.37
2022-09-30T21:49:14.028Z,20.26
2022-09-30T21:51:41.849Z,20.25
2022-09-30T21:54:11.750Z,20.30
2022-09-30T21:56:43.098Z,20.26
2022-09-30T21:59:11.625Z,20.33
2022-09-30T22:01:40.200Z,20.30
2022-09-30T22:04:08.725Z,20.23
2022-09-30T22:06:36.244Z,20.23
2022-09-30T22:09:05.304Z,20.49
2022-09-30T22:11:33.316Z,20.37
2022-09-30T22:14:01.149Z,20.34
2022-09-30T22:16:32.229Z,20.19
2022-09-30T22:19:05.763Z,20.13
2022-09-30T22:21:36.234Z,20.01
2022-09-30T22:24:06.154Z,20.04
2022-09-30T22:26:33.961Z,19.58
2022-09-30T22:29:04.587Z,19.67
2022-09-30T22:31:33.270Z,19.64
2022-09-30T22:34:21.920Z,19.79
2022-09-30T22:37:08.105Z,19.76
2022-09-30T22:39:35.624Z,19.64
2022-09-30T22:42:03.768Z,19.76
2022-09-30T22:44:36.800Z,19.42
2022-09-30T22:47:05.285Z,19.79
2022-09-30T22:49:33.074Z,19.87
2022-09-30T22:52:02.160Z,20.07
2022-09-30T22:54:30.108Z,19.84
2022-09-30T22:56:59.460Z,19.73
2022-09-30T22:59:28.738Z,19.77
2022-09-30T23:01:57.386Z,19.59
2022-09-30T23:04:26.432Z,19.88
2022-09-30T23:06:55.534Z,19.61
2022-09-30T23:09:23.489Z,19.77
2022-09-30T23:11:55.323Z,19.87
2022-09-30T23:14:25.653Z,20.07
2022-09-30T23:16:53.663Z,20.08
2022-09-30T23:19:21.310Z,19.97
2022-09-30T23:21:48.787Z,19.95
2022-09-30T23:24:16.252Z,19.92
2022-09-30T23:26:43.698Z,19.60
2022-09-30T23:29:12.806Z,19.90
2022-09-30T23:31:40.565Z,19.67
2022-09-30T23:34:08.236Z,19.60
2022-09-30T23:36:37.226Z,19.56
2022-09-30T23:39:18.665Z,19.47
2022-09-30T23:41:47.919Z,19.19
2022-09-30T23:44:19.179Z,19.47
2022-09-30T23:47:06.580Z,19.31
2022-09-30T23:49:38.442Z,19.72
2022-09-30T23:52:10.442Z,19.46
2022-09-30T23:54:42.613Z,19.40
2022-09-30T23:57:11.135Z,19.60
2022-09-30T23:59:39.248Z,19.84
